Time;durP1;ratioP1;P1;durP2;ratioP2;P2;SDS_P1;SDS_P2;PMS_P1;PMS_P2;Temp;Humidity;BMP_temperature;BMP_pressure;BME280_temperature;BME280_humidity;BME280_pressure;Samples;Min_cycle;Max_cycle;Signal;HPM_P1;HPM_P2
2023/12/28 00:02:18;;;;;;;4.38;2.40;;;;;;;;;;5035007;28;20033;-62
2023/12/28 00:04:45;;;;;;;5.10;3.40;;;;;;;;;;5040382;28;20041;-62
2023/12/28 00:07:12;;;;;;;3.40;2.63;;;;;;;;;;5036752;28;20056;-62
2023/12/28 00:09:38;;;;;;;2.90;2.50;;;;;;;;;;5032271;28;20425;-62
2023/12/28 00:12:04;;;;;;;3.22;2.70;;;;;;;;;;5038499;28;20047;-62
2023/12/28 00:14:30;;;;;;;2.95;2.50;;;;;;;;;;5035333;28;20075;-62
2023/12/28 00:16:56;;;;;;;4.38;3.20;;;;;;;;;;5035697;28;20378;-62
2023/12/28 00:19:22;;;;;;;2.70;2.33;;;;;;;;;;5033753;28;20049;-62
2023/12/28 00:21:49;;;;;;;4.43;2.72;;;;;;;;;;5036147;28;20037;-62
2023/12/28 00:24:16;;;;;;;2.53;2.33;;;;;;;;;;5036554;28;20639;-62
2023/12/28 00:26:42;;;;;;;3.67;2.35;;;;;;;;;;5033236;28;20602;-62
2023/12/28 00:29:08;;;;;;;3.88;2.78;;;;;;;;;;5033415;28;20053;-62
2023/12/28 00:31:33;;;;;;;3.30;2.33;;;;;;;;;;5039393;28;20711;-62
2023/12/28 00:33:59;;;;;;;6.28;2.83;;;;;;;;;;5032399;28;20048;-62
2023/12/28 00:36:25;;;;;;;3.25;1.90;;;;;;;;;;5036638;28;20493;-62
2023/12/28 00:38:52;;;;;;;4.85;2.72;;;;;;;;;;5036408;28;20118;-62
2023/12/28 00:41:18;;;;;;;4.45;2.38;;;;;;;;;;5038635;28;20048;-62
2023/12/28 00:43:44;;;;;;;3.55;2.55;;;;;;;;;;5034300;28;20049;-62
2023/12/28 00:46:10;;;;;;;3.78;2.30;;;;;;;;;;5034011;28;20135;-62
2023/12/28 00:48:36;;;;;;;6.15;2.50;;;;;;;;;;5034118;28;20119;-62
2023/12/28 00:51:02;;;;;;;2.47;1.98;;;;;;;;;;5031778;28;20203;-62
2023/12/28 00:53:28;;;;;;;7.68;2.60;;;;;;;;;;5032606;28;20048;-61
2023/12/28 00:55:54;;;;;;;3.22;2.47;;;;;;;;;;5035283;28;20056;-61
2023/12/28 00:58:20;;;;;;;5.90;2.83;;;;;;;;;;5035353;28;20044;-61
2023/12/28 01:00:46;;;;;;;5.72;2.70;;;;;;;;;;5036551;28;20057;-62
2023/12/28 01:03:12;;;;;;;5.20;2.30;;;;;;;;;;5034141;28;20123;-62
2023/12/28 01:05:38;;;;;;;7.72;2.78;;;;;;;;;;5035864;28;20320;-62
2023/12/28 01:08:04;;;;;;;6.35;2.50;;;;;;;;;;5030234;28;20040;-62
2023/12/28 01:10:30;;;;;;;6.03;2.40;;;;;;;;;;5034765;28;20041;-62
2023/12/28 01:12:56;;;;;;;4.57;2.15;;;;;;;;;;5034584;28;20048;-62
2023/12/28 01:15:22;;;;;;;6.82;1.95;;;;;;;;;;5035592;28;20049;-62
2023/12/28 01:17:48;;;;;;;7.55;2.45;;;;;;;;;;5032566;28;20775;-62
2023/12/28 01:20:14;;;;;;;5.30;2.65;;;;;;;;;;5034183;28;20112;-63
2023/12/28 01:22:40;;;;;;;11.25;3.03;;;;;;;;;;5036380;28;20032;-62
2023/12/28 01:25:07;;;;;;;7.57;2.88;;;;;;;;;;5033109;28;20041;-62
2023/12/28 01:27:33;;;;;;;7.50;2.75;;;;;;;;;;5038471;28;20033;-62
2023/12/28 01:29:59;;;;;;;6.10;2.92;;;;;;;;;;5033614;28;20053;-62
2023/12/28 01:32:25;;;;;;;7.22;2.30;;;;;;;;;;5035351;28;20048;-62
2023/12/28 01:34:51;;;;;;;12.23;2.40;;;;;;;;;;5034821;28;20710;-62
2023/12/28 01:37:17;;;;;;;6.10;2.72;;;;;;;;;;5033463;28;20042;-62
2023/12/28 01:39:43;;;;;;;8.65;2.80;;;;;;;;;;5033177;28;20055;-62
2023/12/28 01:42:10;;;;;;;6.80;2.40;;;;;;;;;;5032322;28;20589;-62
2023/12/28 01:44:36;;;;;;;9.20;2.72;;;;;;;;;;5031539;28;20967;-62
2023/12/28 01:47:02;;;;;;;8.63;2.67;;;;;;;;;;5033847;28;20127;-62
2023/12/28 01:49:28;;;;;;;10.02;2.92;;;;;;;;;;5035410;28;20053;-62
2023/12/28 01:51:54;;;;;;;8.48;3.05;;;;;;;;;;5036319;28;20069;-62
2023/12/28 01:54:20;;;;;;;8.63;2.60;;;;;;;;;;5035693;28;20182;-62
2023/12/28 01:56:46;;;;;;;9.00;3.25;;;;;;;;;;5033112;28;20119;-62
2023/12/28 01:59:12;;;;;;;9.73;2.13;;;;;;;;;;5031256;28;20053;-62
2023/12/28 02:01:38;;;;;;;9.80;2.63;;;;;;;;;;5037194;28;20033;-62
2023/12/28 02:04:04;;;;;;;2.97;2.03;;;;;;;;;;5033624;28;20460;-62
2023/12/28 02:06:30;;;;;;;7.45;2.25;;;;;;;;;;5036742;28;20047;-62
2023/12/28 02:08:56;;;;;;;9.85;3.00;;;;;;;;;;5035400;28;20047;-62
2023/12/28 02:11:22;;;;;;;8.20;2.28;;;;;;;;;;5033230;28;20048;-62
2023/12/28 02:13:48;;;;;;;11.93;2.65;;;;;;;;;;5032460;28;20040;-62
2023/12/28 02:16:17;;;;;;;6.55;2.00;;;;;;;;;;5033931;28;20124;-62
2023/12/28 02:18:44;;;;;;;14.10;2.88;;;;;;;;;;5030072;28;20053;-62
2023/12/28 02:21:12;;;;;;;10.45;2.60;;;;;;;;;;5031236;28;20057;-62
2023/12/28 02:23:38;;;;;;;8.38;3.05;;;;;;;;;;5033204;28;20052;-62
2023/12/28 02:26:04;;;;;;;11.85;2.78;;;;;;;;;;5032775;28;20033;-62
2023/12/28 02:28:31;;;;;;;7.68;2.53;;;;;;;;;;5035722;28;20048;-62
2023/12/28 02:30:57;;;;;;;6.13;2.35;;;;;;;;;;5034286;28;20083;-62
2023/12/28 02:33:23;;;;;;;8.13;3.15;;;;;;;;;;5036622;28;20114;-62
2023/12/28 02:35:52;;;;;;;8.30;2.47;;;;;;;;;;5033210;28;20072;-62
2023/12/28 02:38:19;;;;;;;6.00;2.33;;;;;;;;;;5033173;28;20040;-62
2023/12/28 02:40:46;;;;;;;6.82;2.15;;;;;;;;;;5034937;28;20080;-62
2023/12/28 02:43:12;;;;;;;7.43;2.30;;;;;;;;;;5031966;28;20094;-61
2023/12/28 02:45:38;;;;;;;7.57;2.53;;;;;;;;;;5031051;28;20103;-62
2023/12/28 02:48:05;;;;;;;10.75;2.42;;;;;;;;;;5032078;28;20041;-63
2023/12/28 02:50:31;;;;;;;6.18;2.40;;;;;;;;;;5037860;28;20055;-62
2023/12/28 02:52:57;;;;;;;7.05;2.58;;;;;;;;;;5034984;28;20057;-62
2023/12/28 02:55:23;;;;;;;4.15;1.80;;;;;;;;;;5034242;28;20170;-62
2023/12/28 02:57:50;;;;;;;7.35;3.75;;;;;;;;;;5038472;28;20041;-63
2023/12/28 03:00:16;;;;;;;6.50;2.50;;;;;;;;;;5035633;28;20045;-62
2023/12/28 03:02:42;;;;;;;2.63;1.70;;;;;;;;;;5037818;28;20028;-62
2023/12/28 03:05:08;;;;;;;6.70;2.58;;;;;;;;;;5037768;28;20231;-62
2023/12/28 03:07:35;;;;;;;6.97;2.30;;;;;;;;;;5036604;28;20045;-62
2023/12/28 03:10:02;;;;;;;7.20;2.17;;;;;;;;;;5032858;28;20086;-62
2023/12/28 03:12:29;;;;;;;6.18;2.13;;;;;;;;;;5035489;28;20049;-62
2023/12/28 03:14:55;;;;;;;3.55;1.70;;;;;;;;;;5037449;28;20037;-62
2023/12/28 03:17:21;;;;;;;4.13;1.73;;;;;;;;;;5036164;28;20098;-62
2023/12/28 03:19:47;;;;;;;8.13;2.38;;;;;;;;;;5032217;28;20650;-62
2023/12/28 03:22:13;;;;;;;7.72;2.13;;;;;;;;;;5038936;28;20041;-62
2023/12/28 03:24:40;;;;;;;5.22;2.42;;;;;;;;;;5037303;28;20046;-62
2023/12/28 03:27:06;;;;;;;5.88;2.67;;;;;;;;;;5036710;28;20033;-62
2023/12/28 03:29:32;;;;;;;9.75;2.40;;;;;;;;;;5035978;28;20029;-62
2023/12/28 03:31:59;;;;;;;11.35;2.90;;;;;;;;;;5038172;28;20041;-62
2023/12/28 03:34:26;;;;;;;8.73;2.83;;;;;;;;;;5039471;28;20045;-62
2023/12/28 03:36:52;;;;;;;12.43;1.88;;;;;;;;;;5036980;28;20044;-61
2023/12/28 03:39:18;;;;;;;11.27;2.78;;;;;;;;;;5035867;28;20163;-61
2023/12/28 03:41:44;;;;;;;8.93;2.42;;;;;;;;;;5039950;28;20041;-62
2023/12/28 03:44:10;;;;;;;4.97;2.20;;;;;;;;;;5033632;28;20588;-62
2023/12/28 03:46:36;;;;;;;4.53;1.92;;;;;;;;;;5036902;28;20041;-62
2023/12/28 03:49:02;;;;;;;4.85;2.40;;;;;;;;;;5034624;28;20378;-62
2023/12/28 03:51:28;;;;;;;14.48;2.78;;;;;;;;;;5035311;28;20118;-62
2023/12/28 03:53:54;;;;;;;8.38;2.13;;;;;;;;;;5036880;28;20053;-62
2023/12/28 03:56:21;;;;;;;9.05;2.20;;;;;;;;;;5037361;28;20627;-62
2023/12/28 03:58:47;;;;;;;6.07;1.65;;;;;;;;;;5038799;28;20036;-62
2023/12/28 04:01:14;;;;;;;8.27;2.40;;;;;;;;;;5038126;28;20497;-62
2023/12/28 04:03:39;;;;;;;10.73;2.30;;;;;;;;;;5033581;28;20033;-63
2023/12/28 04:06:06;;;;;;;7.03;1.98;;;;;;;;;;5036877;28;20032;-62
2023/12/28 04:08:32;;;;;;;9.52;2.72;;;;;;;;;;5035718;28;20048;-62
2023/12/28 04:10:58;;;;;;;6.20;2.13;;;;;;;;;;5036092;28;20045;-62
2023/12/28 04:13:24;;;;;;;9.40;2.30;;;;;;;;;;5039600;28;20589;-62
2023/12/28 04:15:50;;;;;;;7.20;2.15;;;;;;;;;;5037500;28;20041;-62
2023/12/28 04:18:16;;;;;;;6.47;2.33;;;;;;;;;;5031961;28;20111;-62
2023/12/28 04:20:45;;;;;;;6.70;2.05;;;;;;;;;;5039074;28;20048;-63
2023/12/28 04:23:11;;;;;;;5.60;2.33;;;;;;;;;;5037232;28;20061;-62
2023/12/28 04:25:37;;;;;;;6.28;2.58;;;;;;;;;;5034302;28;20409;-62
2023/12/28 04:28:03;;;;;;;7.28;2.10;;;;;;;;;;5035069;28;20049;-62
2023/12/28 04:30:29;;;;;;;4.85;2.50;;;;;;;;;;5037785;28;20059;-62
2023/12/28 04:32:55;;;;;;;3.88;1.67;;;;;;;;;;5033581;28;20469;-62
2023/12/28 04:35:21;;;;;;;15.00;3.65;;;;;;;;;;5033336;28;20088;-62
2023/12/28 04:37:47;;;;;;;13.32;3.05;;;;;;;;;;5033167;28;20512;-62
2023/12/28 04:40:14;;;;;;;11.38;2.58;;;;;;;;;;5033646;28;20053;-62
2023/12/28 04:42:40;;;;;;;10.35;2.95;;;;;;;;;;5039913;28;20047;-62
2023/12/28 04:45:07;;;;;;;6.18;2.30;;;;;;;;;;5035274;28;20041;-62
2023/12/28 04:47:33;;;;;;;7.78;2.40;;;;;;;;;;5037525;28;20033;-62
2023/12/28 04:49:59;;;;;;;8.85;2.20;;;;;;;;;;5039677;28;20075;-62
2023/12/28 04:52:25;;;;;;;6.55;1.90;;;;;;;;;;5037665;28;20041;-62
2023/12/28 04:54:51;;;;;;;5.93;1.80;;;;;;;;;;5037254;28;20041;-62
2023/12/28 04:57:17;;;;;;;14.73;2.88;;;;;;;;;;5038010;28;20084;-62
2023/12/28 04:59:43;;;;;;;8.65;2.60;;;;;;;;;;5038390;28;20037;-62
2023/12/28 05:02:09;;;;;;;10.95;2.75;;;;;;;;;;5032863;28;20038;-62
2023/12/28 05:04:38;;;;;;;7.93;2.47;;;;;;;;;;5038329;28;20095;-62
2023/12/28 05:07:04;;;;;;;11.85;2.92;;;;;;;;;;5036903;28;20053;-62
2023/12/28 05:09:31;;;;;;;8.63;2.53;;;;;;;;;;5036199;28;20052;-62
2023/12/28 05:11:57;;;;;;;5.93;2.17;;;;;;;;;;5037445;28;20039;-63
2023/12/28 05:14:23;;;;;;;7.68;2.60;;;;;;;;;;5035455;28;20094;-63
2023/12/28 05:16:49;;;;;;;11.57;2.63;;;;;;;;;;5036413;28;20056;-62
2023/12/28 05:19:15;;;;;;;11.20;2.65;;;;;;;;;;5033317;28;20148;-62
2023/12/28 05:21:41;;;;;;;8.85;2.15;;;;;;;;;;5033646;28;20158;-62
2023/12/28 05:24:07;;;;;;;9.77;2.70;;;;;;;;;;5035386;28;20048;-62
2023/12/28 05:26:34;;;;;;;7.50;2.17;;;;;;;;;;5037372;28;20033;-62
2023/12/28 05:29:00;;;;;;;12.38;2.85;;;;;;;;;;5035523;28;20039;-62
2023/12/28 05:31:26;;;;;;;11.63;2.60;;;;;;;;;;5037375;28;20045;-62
2023/12/28 05:33:52;;;;;;;10.93;2.55;;;;;;;;;;5034917;28;20478;-62
2023/12/28 05:36:18;;;;;;;7.72;2.40;;;;;;;;;;5036871;28;20382;-62
2023/12/28 05:38:44;;;;;;;11.20;2.85;;;;;;;;;;5033210;28;20092;-62
2023/12/28 05:41:11;;;;;;;10.35;2.70;;;;;;;;;;5031800;28;20054;-62
2023/12/28 05:43:37;;;;;;;13.98;2.95;;;;;;;;;;5034733;28;20043;-62
2023/12/28 05:46:03;;;;;;;10.48;2.70;;;;;;;;;;5035506;28;20572;-62
2023/12/28 05:48:29;;;;;;;11.63;3.13;;;;;;;;;;5036381;28;20098;-63
2023/12/28 05:50:58;;;;;;;9.82;2.83;;;;;;;;;;5037887;28;20045;-67
2023/12/28 05:53:24;;;;;;;15.00;3.42;;;;;;;;;;5036094;28;20041;-62
2023/12/28 05:55:50;;;;;;;8.32;2.60;;;;;;;;;;5032844;28;20091;-62
2023/12/28 05:58:16;;;;;;;8.88;2.22;;;;;;;;;;5032943;28;20159;-63
2023/12/28 06:00:42;;;;;;;10.15;2.92;;;;;;;;;;5033046;28;20555;-62
2023/12/28 06:03:08;;;;;;;10.65;2.53;;;;;;;;;;5035346;28;20052;-62
2023/12/28 06:05:34;;;;;;;5.85;2.22;;;;;;;;;;5035657;28;20842;-62
2023/12/28 06:08:00;;;;;;;12.02;2.88;;;;;;;;;;5032720;28;20516;-62
2023/12/28 06:10:26;;;;;;;11.77;2.80;;;;;;;;;;5034504;28;20087;-62
2023/12/28 06:12:52;;;;;;;16.13;3.53;;;;;;;;;;5035509;28;20076;-62
2023/12/28 06:15:18;;;;;;;12.50;2.60;;;;;;;;;;5033227;28;20049;-62
2023/12/28 06:17:44;;;;;;;14.27;3.28;;;;;;;;;;5033689;28;20064;-63
2023/12/28 06:20:11;;;;;;;12.00;3.28;;;;;;;;;;5033756;28;20738;-63
2023/12/28 06:22:40;;;;;;;12.23;3.03;;;;;;;;;;5031023;28;20060;-63
2023/12/28 06:25:06;;;;;;;9.13;2.85;;;;;;;;;;5035151;28;20120;-63
2023/12/28 06:27:32;;;;;;;15.18;3.50;;;;;;;;;;5040394;28;20036;-63
2023/12/28 06:29:58;;;;;;;10.40;3.42;;;;;;;;;;5036910;28;20041;-63
2023/12/28 06:32:24;;;;;;;9.50;3.08;;;;;;;;;;5039445;28;20044;-63
2023/12/28 06:34:50;;;;;;;7.90;3.00;;;;;;;;;;5034750;28;20064;-63
2023/12/28 06:37:17;;;;;;;11.32;2.42;;;;;;;;;;5035996;28;20432;-63
2023/12/28 06:39:43;;;;;;;12.88;2.70;;;;;;;;;;5036805;28;20100;-63
2023/12/28 06:42:09;;;;;;;14.63;3.28;;;;;;;;;;5032469;28;20052;-63
2023/12/28 06:44:35;;;;;;;12.38;3.05;;;;;;;;;;5038826;28;20041;-63
2023/12/28 06:47:01;;;;;;;13.85;2.95;;;;;;;;;;5037613;28;20551;-63
2023/12/28 06:49:27;;;;;;;13.27;3.33;;;;;;;;;;5035109;28;20053;-63
2023/12/28 06:51:53;;;;;;;13.65;3.25;;;;;;;;;;5037654;28;20052;-63
2023/12/28 06:54:19;;;;;;;13.95;2.95;;;;;;;;;;5040398;28;20132;-63
2023/12/28 06:56:45;;;;;;;13.32;2.88;;;;;;;;;;5042147;28;20079;-63
2023/12/28 06:59:12;;;;;;;9.75;3.17;;;;;;;;;;5039168;28;20045;-63
2023/12/28 07:01:39;;;;;;;19.52;3.05;;;;;;;;;;5035077;28;20164;-63
2023/12/28 07:04:06;;;;;;;14.25;3.20;;;;;;;;;;5035706;28;20043;-63
2023/12/28 07:06:32;;;;;;;12.40;3.17;;;;;;;;;;5036282;28;20091;-63
2023/12/28 07:08:58;;;;;;;15.93;4.10;;;;;;;;;;5034256;28;20036;-63
2023/12/28 07:11:24;;;;;;;10.50;2.85;;;;;;;;;;5037559;28;20052;-63
2023/12/28 07:13:50;;;;;;;10.93;3.22;;;;;;;;;;5036987;28;20979;-63
2023/12/28 07:16:16;;;;;;;16.13;3.50;;;;;;;;;;5037136;28;20059;-63
2023/12/28 07:18:42;;;;;;;14.05;3.70;;;;;;;;;;5039906;28;20075;-62
2023/12/28 07:21:11;;;;;;;15.60;3.85;;;;;;;;;;5036029;28;20037;-62
2023/12/28 07:23:38;;;;;;;12.18;3.63;;;;;;;;;;5036701;28;20130;-62
2023/12/28 07:26:04;;;;;;;18.30;4.60;;;;;;;;;;5036465;28;20037;-62
2023/12/28 07:28:30;;;;;;;15.65;4.03;;;;;;;;;;5035379;28;20044;-63
2023/12/28 07:30:56;;;;;;;18.73;3.67;;;;;;;;;;5036923;28;20076;-63
2023/12/28 07:33:22;;;;;;;11.75;3.30;;;;;;;;;;5037978;28;20102;-63
2023/12/28 07:35:48;;;;;;;13.45;3.30;;;;;;;;;;5033925;28;20451;-62
2023/12/28 07:38:15;;;;;;;17.98;3.78;;;;;;;;;;5039199;28;20041;-61
2023/12/28 07:40:41;;;;;;;17.15;3.08;;;;;;;;;;5035125;28;20045;-64
2023/12/28 07:43:07;;;;;;;13.75;3.85;;;;;;;;;;5045941;28;20045;-62
2023/12/28 07:45:33;;;;;;;15.13;3.72;;;;;;;;;;5040554;28;20047;-62
2023/12/28 07:48:02;;;;;;;13.65;3.35;;;;;;;;;;5047171;28;20508;-62
2023/12/28 07:50:28;;;;;;;19.08;3.58;;;;;;;;;;5044656;28;20106;-62
2023/12/28 07:52:54;;;;;;;35.03;4.93;;;;;;;;;;5044216;28;20041;-62
2023/12/28 07:55:20;;;;;;;15.93;4.05;;;;;;;;;;5047155;28;20041;-61
2023/12/28 07:57:46;;;;;;;21.67;4.68;;;;;;;;;;5045660;28;20131;-60
2023/12/28 08:00:12;;;;;;;15.32;3.88;;;;;;;;;;5035816;28;20397;-62
2023/12/28 08:02:38;;;;;;;20.98;4.47;;;;;;;;;;5041930;28;20147;-62
2023/12/28 08:05:05;;;;;;;14.48;4.13;;;;;;;;;;5040734;28;20037;-62
2023/12/28 08:07:31;;;;;;;16.67;4.07;;;;;;;;;;5044626;28;20033;-63
2023/12/28 08:09:57;;;;;;;20.33;4.78;;;;;;;;;;5041030;28;20119;-62
2023/12/28 08:12:24;;;;;;;26.80;4.68;;;;;;;;;;5044701;28;20127;-62
2023/12/28 08:14:50;;;;;;;17.85;4.28;;;;;;;;;;5047347;28;20045;-62
2023/12/28 08:17:16;;;;;;;21.63;4.45;;;;;;;;;;5046905;28;20071;-62
2023/12/28 08:19:42;;;;;;;18.77;4.57;;;;;;;;;;5047934;28;20060;-62
2023/12/28 08:22:08;;;;;;;30.95;6.55;;;;;;;;;;5042560;28;20041;-62
2023/12/28 08:24:36;;;;;;;15.07;4.22;;;;;;;;;;5041263;28;20037;-62
2023/12/28 08:27:02;;;;;;;18.33;4.80;;;;;;;;;;5046659;28;20048;-62
2023/12/28 08:29:28;;;;;;;18.13;3.83;;;;;;;;;;5042110;28;20090;-62
2023/12/28 08:31:55;;;;;;;21.15;4.75;;;;;;;;;;5043543;28;20119;-62
2023/12/28 08:34:21;;;;;;;17.35;4.30;;;;;;;;;;5042233;28;20040;-62
2023/12/28 08:36:47;;;;;;;24.25;5.22;;;;;;;;;;5042777;28;20029;-62
2023/12/28 08:39:13;;;;;;;23.42;4.85;;;;;;;;;;5045287;28;20458;-62
2023/12/28 08:41:39;;;;;;;22.08;5.15;;;;;;;;;;5035909;28;20094;-62
2023/12/28 08:44:05;;;;;;;22.73;5.57;;;;;;;;;;5041420;28;20045;-62
2023/12/28 08:46:31;;;;;;;28.65;5.63;;;;;;;;;;5036110;28;20124;-62
2023/12/28 08:48:57;;;;;;;20.45;4.30;;;;;;;;;;5042481;28;20112;-63
2023/12/28 08:51:23;;;;;;;25.50;5.55;;;;;;;;;;5043644;28;20137;-62
2023/12/28 08:53:49;;;;;;;16.60;4.60;;;;;;;;;;5033500;28;20044;-62
2023/12/28 08:56:20;;;;;;;12.48;3.88;;;;;;;;;;5042910;28;20045;-62
2023/12/28 08:58:49;;;;;;;23.98;5.20;;;;;;;;;;5045912;28;20529;-62
2023/12/28 09:01:16;;;;;;;19.42;5.07;;;;;;;;;;5041846;28;20056;-62
2023/12/28 09:03:42;;;;;;;22.98;5.25;;;;;;;;;;5044443;28;20095;-62
2023/12/28 09:06:08;;;;;;;23.40;4.68;;;;;;;;;;5041081;28;20032;-62
2023/12/28 09:08:34;;;;;;;24.00;5.18;;;;;;;;;;5045956;28;20159;-62
2023/12/28 09:11:01;;;;;;;22.85;4.90;;;;;;;;;;5046536;28;20041;-62
2023/12/28 09:13:27;;;;;;;22.15;4.95;;;;;;;;;;5044084;28;20060;-62
2023/12/28 09:15:53;;;;;;;22.10;5.15;;;;;;;;;;5046276;28;20040;-62
2023/12/28 09:18:19;;;;;;;28.90;5.63;;;;;;;;;;5040074;28;20037;-62
2023/12/28 09:20:45;;;;;;;18.50;4.75;;;;;;;;;;5042359;28;20089;-62
2023/12/28 09:23:11;;;;;;;16.40;4.25;;;;;;;;;;5041845;28;20049;-62
2023/12/28 09:25:38;;;;;;;23.80;4.35;;;;;;;;;;5039840;28;20390;-62
2023/12/28 09:28:05;;;;;;;16.75;4.07;;;;;;;;;;5036128;28;20042;-62
2023/12/28 09:30:31;;;;;;;22.67;5.28;;;;;;;;;;5040355;28;20381;-62
2023/12/28 09:32:57;;;;;;;21.90;5.07;;;;;;;;;;5033379;28;20041;-62
2023/12/28 09:35:24;;;;;;;15.20;3.85;;;;;;;;;;5039485;28;20048;-62
2023/12/28 09:37:51;;;;;;;18.70;4.68;;;;;;;;;;5043054;28;20044;-62
2023/12/28 09:40:17;;;;;;;17.88;4.70;;;;;;;;;;5042486;28;20053;-62
2023/12/28 09:42:49;;;;;;;17.42;4.72;;;;;;;;;;5044134;28;20123;-62
2023/12/28 09:45:15;;;;;;;20.10;4.53;;;;;;;;;;5043788;28;20056;-62
2023/12/28 09:47:43;;;;;;;19.00;5.13;;;;;;;;;;5045171;28;20037;-62
2023/12/28 09:50:10;;;;;;;19.50;4.30;;;;;;;;;;5045003;28;20053;-62
2023/12/28 09:52:36;;;;;;;18.85;4.60;;;;;;;;;;5044615;28;20521;-62
2023/12/28 09:55:02;;;;;;;12.73;3.92;;;;;;;;;;5040843;28;20033;-62
2023/12/28 09:57:28;;;;;;;20.90;4.43;;;;;;;;;;5044477;28;20037;-62
2023/12/28 09:59:55;;;;;;;17.70;4.28;;;;;;;;;;5047217;28;20048;-62
2023/12/28 10:02:21;;;;;;;25.08;4.97;;;;;;;;;;5046199;28;20037;-61
2023/12/28 10:04:47;;;;;;;18.08;4.00;;;;;;;;;;5047076;28;20169;-61
2023/12/28 10:07:13;;;;;;;20.83;4.78;;;;;;;;;;5048242;28;20124;-61
2023/12/28 10:09:39;;;;;;;21.23;5.22;;;;;;;;;;5047803;28;20675;-61
2023/12/28 10:12:05;;;;;;;25.73;4.65;;;;;;;;;;5048818;28;20045;-62
2023/12/28 10:14:31;;;;;;;15.57;4.95;;;;;;;;;;5055857;28;20037;-62
2023/12/28 10:16:57;;;;;;;15.65;3.90;;;;;;;;;;5058864;28;20183;-61
2023/12/28 10:19:23;;;;;;;24.85;4.43;;;;;;;;;;5045322;28;20037;-61
2023/12/28 10:21:50;;;;;;;18.73;4.13;;;;;;;;;;5039417;28;20469;-61
2023/12/28 10:24:16;;;;;;;19.08;4.15;;;;;;;;;;5042770;28;20052;-61
2023/12/28 10:26:42;;;;;;;17.35;4.30;;;;;;;;;;5055654;28;20036;-61
2023/12/28 10:29:08;;;;;;;19.15;4.22;;;;;;;;;;5056404;28;20467;-61
2023/12/28 10:31:34;;;;;;;18.60;4.65;;;;;;;;;;5057321;28;20048;-61
2023/12/28 10:34:02;;;;;;;24.20;5.07;;;;;;;;;;5045947;28;20033;-61
2023/12/28 10:36:28;;;;;;;17.80;3.97;;;;;;;;;;5045715;28;20037;-61
2023/12/28 10:38:54;;;;;;;18.35;4.45;;;;;;;;;;5047486;28;20496;-62
2023/12/28 10:41:20;;;;;;;16.88;4.13;;;;;;;;;;5048886;28;20057;-61
2023/12/28 10:43:54;;;;;;;17.48;4.40;;;;;;;;;;5048281;28;20037;-61
2023/12/28 10:46:27;;;;;;;14.63;4.63;;;;;;;;;;5042986;28;20048;-61
2023/12/28 10:48:54;;;;;;;21.15;3.33;;;;;;;;;;5048652;28;20036;-61
2023/12/28 10:51:22;;;;;;;15.93;4.13;;;;;;;;;;5047977;28;20591;-62
2023/12/28 10:53:59;;;;;;;12.23;3.47;;;;;;;;;;5048523;28;20050;-61
2023/12/28 10:56:39;;;;;;;14.80;4.20;;;;;;;;;;5047161;28;20037;-61
2023/12/28 10:59:24;;;;;;;19.20;4.18;;;;;;;;;;5043903;28;20037;-62
2023/12/28 11:01:51;;;;;;;15.68;3.40;;;;;;;;;;5044809;28;20044;-61
2023/12/28 11:04:26;;;;;;;18.27;4.05;;;;;;;;;;5047136;28;20047;-61
2023/12/28 11:06:53;;;;;;;13.80;3.58;;;;;;;;;;5045081;28;20048;-61
2023/12/28 11:09:19;;;;;;;20.08;4.95;;;;;;;;;;5046921;28;20037;-61
2023/12/28 11:11:46;;;;;;;38.15;7.30;;;;;;;;;;5045243;28;20048;-61
2023/12/28 11:14:14;;;;;;;11.27;3.85;;;;;;;;;;5044775;28;20037;-61
2023/12/28 11:16:41;;;;;;;19.90;4.53;;;;;;;;;;5047181;28;20651;-61
2023/12/28 11:19:07;;;;;;;20.50;4.15;;;;;;;;;;5046624;28;20044;-61
2023/12/28 11:21:34;;;;;;;19.20;4.30;;;;;;;;;;5044512;28;20053;-61
2023/12/28 11:24:00;;;;;;;17.90;4.25;;;;;;;;;;5046668;28;20041;-61
2023/12/28 11:26:28;;;;;;;18.20;4.72;;;;;;;;;;5047233;28;20431;-61
2023/12/28 11:29:01;;;;;;;19.63;5.20;;;;;;;;;;5046602;28;20044;-61
2023/12/28 11:31:27;;;;;;;18.52;4.05;;;;;;;;;;5047426;28;20048;-61
2023/12/28 11:33:53;;;;;;;18.35;3.78;;;;;;;;;;5046837;28;20129;-61
2023/12/28 11:36:24;;;;;;;19.25;4.63;;;;;;;;;;5047367;28;20052;-61
2023/12/28 11:38:54;;;;;;;14.40;4.30;;;;;;;;;;5047218;28;20045;-61
2023/12/28 11:41:21;;;;;;;16.20;4.05;;;;;;;;;;5046648;28;20102;-61
2023/12/28 11:43:56;;;;;;;19.70;3.90;;;;;;;;;;5047263;28;20670;-62
2023/12/28 11:46:22;;;;;;;20.20;5.65;;;;;;;;;;5045982;28;20444;-62
2023/12/28 11:48:48;;;;;;;13.25;3.42;;;;;;;;;;5046573;28;20041;-62
2023/12/28 11:51:15;;;;;;;19.05;4.43;;;;;;;;;;5046702;28;20102;-62
2023/12/28 11:53:42;;;;;;;19.05;3.80;;;;;;;;;;5047086;28;20041;-62
2023/12/28 11:56:09;;;;;;;21.02;4.57;;;;;;;;;;5046413;28;20037;-62
2023/12/28 11:58:35;;;;;;;16.20;3.92;;;;;;;;;;5046898;28;20045;-62
2023/12/28 12:01:02;;;;;;;16.85;4.32;;;;;;;;;;5046523;28;20052;-61
2023/12/28 12:03:29;;;;;;;21.77;4.80;;;;;;;;;;5046750;28;20051;-61
2023/12/28 12:05:57;;;;;;;14.95;4.18;;;;;;;;;;5047006;28;20045;-61
2023/12/28 12:08:23;;;;;;;21.70;4.72;;;;;;;;;;5047071;28;20054;-61
2023/12/28 12:10:59;;;;;;;15.95;5.88;;;;;;;;;;5046424;28;20064;-61
2023/12/28 12:13:25;;;;;;;19.92;4.68;;;;;;;;;;5045521;28;20588;-61
2023/12/28 12:15:52;;;;;;;26.38;5.47;;;;;;;;;;5046293;28;20051;-62
2023/12/28 12:18:18;;;;;;;20.25;4.47;;;;;;;;;;5046631;28;20045;-62
2023/12/28 12:20:45;;;;;;;24.98;4.82;;;;;;;;;;5046410;28;20120;-61
2023/12/28 12:23:12;;;;;;;22.65;5.13;;;;;;;;;;5045012;28;20049;-61
2023/12/28 12:25:38;;;;;;;22.08;5.35;;;;;;;;;;5046294;28;20048;-61
2023/12/28 12:28:05;;;;;;;15.60;3.92;;;;;;;;;;5046126;28;20120;-62
2023/12/28 12:30:31;;;;;;;30.67;6.43;;;;;;;;;;5045502;28;20049;-62
2023/12/28 12:32:57;;;;;;;17.33;3.90;;;;;;;;;;5046840;28;20111;-62
2023/12/28 12:35:23;;;;;;;22.52;4.78;;;;;;;;;;5046329;28;20131;-62
2023/12/28 12:37:50;;;;;;;26.23;5.47;;;;;;;;;;5045602;28;20167;-62
2023/12/28 12:40:18;;;;;;;23.13;5.18;;;;;;;;;;5044940;28;20037;-62
2023/12/28 12:42:51;;;;;;;27.02;5.03;;;;;;;;;;5045759;28;20067;-62
2023/12/28 12:45:18;;;;;;;17.90;5.10;;;;;;;;;;5043861;28;20065;-62
2023/12/28 12:47:45;;;;;;;22.75;4.47;;;;;;;;;;5043877;28;20043;-62
2023/12/28 12:50:11;;;;;;;14.30;3.78;;;;;;;;;;5045000;28;20064;-62
2023/12/28 12:52:37;;;;;;;17.85;4.90;;;;;;;;;;5044937;28;20090;-63
2023/12/28 12:55:03;;;;;;;16.98;4.20;;;;;;;;;;5046243;28;20067;-63
2023/12/28 12:57:30;;;;;;;22.48;5.22;;;;;;;;;;5045299;28;20067;-65
2023/12/28 12:59:56;;;;;;;14.52;4.63;;;;;;;;;;5045079;28;20070;-65
2023/12/28 13:02:27;;;;;;;18.90;4.75;;;;;;;;;;5045287;28;20052;-65
2023/12/28 13:04:53;;;;;;;19.65;5.18;;;;;;;;;;5041056;28;20037;-64
2023/12/28 13:07:20;;;;;;;14.60;4.18;;;;;;;;;;5042483;28;20045;-63
2023/12/28 13:09:46;;;;;;;22.77;4.78;;;;;;;;;;5044327;28;20044;-63
2023/12/28 13:12:12;;;;;;;26.42;4.85;;;;;;;;;;5043528;28;20091;-63
2023/12/28 13:14:38;;;;;;;21.83;5.50;;;;;;;;;;5043252;28;20040;-63
2023/12/28 13:17:04;;;;;;;16.92;4.47;;;;;;;;;;5041880;28;20033;-63
2023/12/28 13:19:30;;;;;;;21.52;5.20;;;;;;;;;;5038014;28;20064;-63
2023/12/28 13:21:56;;;;;;;16.55;4.57;;;;;;;;;;5043766;28;20045;-63
2023/12/28 13:24:22;;;;;;;18.58;4.07;;;;;;;;;;5043376;28;20056;-64
2023/12/28 13:26:48;;;;;;;21.15;4.65;;;;;;;;;;5041620;28;20041;-64
2023/12/28 13:29:14;;;;;;;21.42;5.00;;;;;;;;;;5044974;28;20040;-64
2023/12/28 13:31:40;;;;;;;17.52;4.03;;;;;;;;;;5042301;28;20123;-64
2023/12/28 13:34:06;;;;;;;20.02;3.75;;;;;;;;;;5040717;28;20099;-64
2023/12/28 13:36:34;;;;;;;16.75;3.97;;;;;;;;;;5043095;28;20098;-63
2023/12/28 13:39:00;;;;;;;14.38;3.47;;;;;;;;;;5042659;28;20037;-63
2023/12/28 13:41:26;;;;;;;21.58;4.30;;;;;;;;;;5042385;28;20455;-63
2023/12/28 13:43:53;;;;;;;16.27;3.90;;;;;;;;;;5041875;28;20094;-63
2023/12/28 13:46:19;;;;;;;19.08;5.05;;;;;;;;;;5040703;28;20740;-64
2023/12/28 13:48:45;;;;;;;17.45;4.55;;;;;;;;;;5039110;28;20037;-64
2023/12/28 13:51:11;;;;;;;16.65;3.58;;;;;;;;;;5040788;28;20115;-64
2023/12/28 13:53:40;;;;;;;14.07;3.88;;;;;;;;;;5043238;28;20073;-64
2023/12/28 13:56:08;;;;;;;11.48;3.67;;;;;;;;;;5045097;28;20049;-63
2023/12/28 13:58:34;;;;;;;17.75;4.20;;;;;;;;;;5043936;28;20053;-63
2023/12/28 14:01:00;;;;;;;13.85;4.40;;;;;;;;;;5044205;28;20043;-64
2023/12/28 14:03:26;;;;;;;14.57;4.28;;;;;;;;;;5044303;28;20037;-64
2023/12/28 14:05:52;;;;;;;13.55;3.42;;;;;;;;;;5045579;28;20033;-64
2023/12/28 14:08:18;;;;;;;24.08;5.13;;;;;;;;;;5042651;28;20046;-64
2023/12/28 14:10:44;;;;;;;16.23;4.30;;;;;;;;;;5042448;28;20056;-64
2023/12/28 14:13:10;;;;;;;15.82;3.83;;;;;;;;;;5043799;28;20071;-63
2023/12/28 14:15:37;;;;;;;13.75;3.47;;;;;;;;;;5044161;28;20362;-63
2023/12/28 14:18:05;;;;;;;15.30;3.83;;;;;;;;;;5044241;28;20037;-64
2023/12/28 14:20:31;;;;;;;8.93;3.33;;;;;;;;;;5038928;28;20043;-63
2023/12/28 14:22:57;;;;;;;12.40;4.60;;;;;;;;;;5045003;28;20081;-64
2023/12/28 14:25:24;;;;;;;17.48;4.05;;;;;;;;;;5042994;28;20046;-63
2023/12/28 14:27:50;;;;;;;24.17;5.88;;;;;;;;;;5041057;28;20044;-63
2023/12/28 14:30:17;;;;;;;26.70;4.93;;;;;;;;;;5044294;28;20052;-63